Time;durP1;ratioP1;P1;durP2;ratioP2;P2;SDS_P1;SDS_P2;PMS_P1;PMS_P2;Temp;Humidity;BMP_temperature;BMP_pressure;BME280_temperature;BME280_humidity;BME280_pressure;Samples;Min_cycle;Max_cycle;Signal;HPM_P1;HPM_P2
2023/09/29 00:00:21;;;;;;;21.00;8.80;;;16.70;99.90;;;;;;5034770;28;20303;-89
2023/09/29 00:02:50;;;;;;;17.27;6.00;;;16.80;99.90;;;;;;5018747;28;20045;-89
2023/09/29 00:05:17;;;;;;;20.23;9.52;;;16.70;99.90;;;;;;5035425;28;20044;-89
2023/09/29 00:07:42;;;;;;;19.85;8.68;;;16.80;99.90;;;;;;5018602;28;20033;-89
2023/09/29 00:10:10;;;;;;;14.55;5.05;;;16.70;99.90;;;;;;5018692;28;20094;-89
2023/09/29 00:12:37;;;;;;;12.10;4.97;;;16.70;99.90;;;;;;5034994;28;20056;-89
2023/09/29 00:15:06;;;;;;;19.17;8.73;;;16.70;99.90;;;;;;5018719;28;20488;-89
2023/09/29 00:17:32;;;;;;;19.02;8.93;;;16.70;99.90;;;;;;5035265;28;20381;-89
2023/09/29 00:19:59;;;;;;;19.55;8.32;;;16.70;99.90;;;;;;5035010;28;20128;-89
2023/09/29 00:22:25;;;;;;;23.90;8.45;;;16.80;99.90;;;;;;5018437;28;20045;-89
2023/09/29 00:24:50;;;;;;;19.90;9.27;;;16.80;99.90;;;;;;5018172;28;20129;-89
2023/09/29 00:27:16;;;;;;;17.85;7.63;;;16.70;99.90;;;;;;5018279;28;20098;-90
2023/09/29 00:29:42;;;;;;;18.23;8.63;;;16.80;99.90;;;;;;5017949;28;20048;-89
2023/09/29 00:32:08;;;;;;;13.93;4.60;;;16.80;99.90;;;;;;5034869;28;20422;-89
2023/09/29 00:34:33;;;;;;;16.02;7.68;;;16.80;99.90;;;;;;5017578;28;20033;-88
2023/09/29 00:36:59;;;;;;;18.20;8.70;;;16.70;99.90;;;;;;5018205;28;20561;-89
2023/09/29 00:39:25;;;;;;;12.85;5.65;;;16.70;99.90;;;;;;5017189;28;20125;-89
2023/09/29 00:41:51;;;;;;;20.33;8.32;;;16.70;99.90;;;;;;5033971;28;20139;-89
2023/09/29 00:44:17;;;;;;;17.35;8.25;;;16.70;99.90;;;;;;5034611;28;20048;-89
2023/09/29 00:46:43;;;;;;;15.32;5.38;;;16.80;99.90;;;;;;5033981;28;20409;-89
2023/09/29 00:49:09;;;;;;;17.98;8.55;;;16.70;99.90;;;;;;5016933;28;20524;-89
2023/09/29 00:51:35;;;;;;;20.95;9.65;;;16.70;99.90;;;;;;5033793;28;20607;-89
2023/09/29 00:54:08;;;;;;;12.38;4.80;;;16.80;99.90;;;;;;5035418;28;20063;-89
2023/09/29 00:56:35;;;;;;;19.38;9.27;;;16.80;99.90;;;;;;5021579;28;20075;-89
2023/09/29 00:59:02;;;;;;;19.63;9.35;;;16.80;99.90;;;;;;5048840;28;20049;-89
2023/09/29 01:01:27;;;;;;;17.13;5.20;;;16.80;99.90;;;;;;5019005;28;20044;-89
2023/09/29 01:03:53;;;;;;;19.77;9.05;;;16.80;99.90;;;;;;5017143;28;20033;-89
2023/09/29 01:06:19;;;;;;;18.15;9.35;;;16.80;99.90;;;;;;5034468;28;20574;-89
2023/09/29 01:08:45;;;;;;;19.33;8.90;;;16.90;99.90;;;;;;5032979;28;20546;-89
2023/09/29 01:11:11;;;;;;;13.93;5.32;;;16.90;99.90;;;;;;5034475;28;20041;-89
2023/09/29 01:13:41;;;;;;;18.02;9.38;;;16.80;99.90;;;;;;5017359;28;20091;-90
2023/09/29 01:16:07;;;;;;;19.48;9.77;;;16.80;99.90;;;;;;5017833;28;20099;-89
2023/09/29 01:18:34;;;;;;;21.10;9.45;;;16.90;99.90;;;;;;5017345;28;20073;-89
2023/09/29 01:21:01;;;;;;;15.25;5.28;;;16.90;99.90;;;;;;5033728;28;20052;-90
2023/09/29 01:23:32;;;;;;;14.90;6.18;;;16.80;99.90;;;;;;5017202;28;20424;-89
2023/09/29 01:25:57;;;;;;;15.57;5.97;;;16.80;99.90;;;;;;5033715;28;20463;-89
2023/09/29 01:28:24;;;;;;;18.15;10.10;;;16.80;99.90;;;;;;5016995;28;20033;-89
2023/09/29 01:30:53;;;;;;;20.65;10.05;;;16.80;99.90;;;;;;5057576;28;20029;-89
2023/09/29 01:33:21;;;;;;;16.58;6.53;;;16.80;99.90;;;;;;5026583;28;20496;-89
2023/09/29 01:35:49;;;;;;;19.88;8.07;;;16.80;99.90;;;;;;5019466;28;20392;-89
2023/09/29 01:38:15;;;;;;;19.55;11.32;;;16.80;99.90;;;;;;5035708;28;20126;-89
2023/09/29 01:40:44;;;;;;;13.30;6.35;;;16.80;99.90;;;;;;5034841;28;20041;-90
2023/09/29 01:43:10;;;;;;;18.08;7.30;;;16.70;99.90;;;;;;5031428;28;20053;-89
2023/09/29 01:45:38;;;;;;;19.50;10.68;;;16.70;99.90;;;;;;5017688;28;20045;-89
2023/09/29 01:48:04;;;;;;;11.68;6.53;;;16.80;99.90;;;;;;5017085;28;20047;-89
2023/09/29 01:50:32;;;;;;;14.95;6.63;;;16.80;99.90;;;;;;5016717;28;20049;-89
2023/09/29 01:52:58;;;;;;;16.75;7.60;;;16.80;99.90;;;;;;5017243;28;20643;-89
2023/09/29 01:55:24;;;;;;;19.25;11.15;;;16.70;99.90;;;;;;5016854;28;20036;-89
2023/09/29 01:57:53;;;;;;;21.80;11.85;;;16.80;99.90;;;;;;5033235;28;20037;-89
2023/09/29 02:00:19;;;;;;;20.00;11.82;;;16.80;99.90;;;;;;5016313;28;20041;-89
2023/09/29 02:02:48;;;;;;;22.95;12.82;;;16.90;99.90;;;;;;5016708;28;20082;-89
2023/09/29 02:05:18;;;;;;;21.65;11.77;;;16.90;99.90;;;;;;5016907;28;20123;-89
2023/09/29 02:07:44;;;;;;;15.85;7.13;;;16.90;99.90;;;;;;5016709;28;20045;-88
2023/09/29 02:10:10;;;;;;;21.13;13.00;;;16.80;99.90;;;;;;5033496;28;20123;-89
2023/09/29 02:12:47;;;;;;;20.80;12.52;;;16.80;99.90;;;;;;5033241;28;20043;-89
2023/09/29 02:15:17;;;;;;;20.70;12.50;;;16.90;99.90;;;;;;5016768;28;20128;-89
2023/09/29 02:17:44;;;;;;;23.92;12.77;;;16.90;99.90;;;;;;5032913;28;20443;-89
2023/09/29 02:20:18;;;;;;;17.98;7.85;;;16.90;99.90;;;;;;5034644;28;20047;-88
2023/09/29 02:22:44;;;;;;;21.42;11.57;;;16.90;99.90;;;;;;5036787;28;20060;-88
2023/09/29 02:25:18;;;;;;;23.35;13.60;;;16.90;99.90;;;;;;5020371;28;20043;-88
2023/09/29 02:27:44;;;;;;;16.10;7.93;;;16.90;99.90;;;;;;5036797;28;20041;-89
2023/09/29 02:30:11;;;;;;;19.20;7.93;;;16.90;99.90;;;;;;5036898;28;20082;-88
2023/09/29 02:32:41;;;;;;;19.92;12.10;;;16.90;99.90;;;;;;5020984;28;20076;-89
2023/09/29 02:35:08;;;;;;;20.85;12.32;;;16.90;99.90;;;;;;5020426;28;20045;-89
2023/09/29 02:37:33;;;;;;;16.13;8.45;;;16.90;99.90;;;;;;5036672;28;20502;-89
2023/09/29 02:39:59;;;;;;;19.48;12.15;;;16.90;99.90;;;;;;5020151;28;20136;-89
2023/09/29 02:42:25;;;;;;;20.52;12.30;;;16.90;99.90;;;;;;5036546;28;20128;-89
2023/09/29 02:44:51;;;;;;;20.23;12.27;;;17.00;99.90;;;;;;5036993;28;20094;-89
2023/09/29 02:47:17;;;;;;;19.40;12.27;;;17.00;99.90;;;;;;5037044;28;20135;-89
2023/09/29 02:49:42;;;;;;;17.58;7.75;;;17.00;99.90;;;;;;5019804;28;20619;-89
2023/09/29 02:52:08;;;;;;;15.07;7.28;;;17.00;99.90;;;;;;5020389;28;20044;-90
2023/09/29 02:54:33;;;;;;;18.83;11.85;;;16.90;99.90;;;;;;5036464;28;20033;-89
2023/09/29 02:56:59;;;;;;;18.27;11.43;;;16.90;99.90;;;;;;5036655;28;20037;-89
2023/09/29 02:59:25;;;;;;;21.58;12.93;;;17.00;99.90;;;;;;5019814;28;20040;-89
2023/09/29 03:01:51;;;;;;;14.23;7.43;;;17.00;99.90;;;;;;5036380;28;20152;-89
2023/09/29 03:04:16;;;;;;;22.75;13.00;;;17.00;99.90;;;;;;5036483;28;20045;-89
2023/09/29 03:06:42;;;;;;;21.70;14.18;;;17.00;99.90;;;;;;5036785;28;20451;-89
2023/09/29 03:09:11;;;;;;;17.80;8.05;;;17.00;99.90;;;;;;5019714;28;20589;-90
2023/09/29 03:11:43;;;;;;;21.90;13.60;;;17.00;99.90;;;;;;5036430;28;20044;-90
2023/09/29 03:14:09;;;;;;;23.10;13.27;;;17.00;99.90;;;;;;5020020;28;20091;-89
2023/09/29 03:16:35;;;;;;;15.95;8.63;;;17.00;99.90;;;;;;5019379;28;20041;-89
2023/09/29 03:19:04;;;;;;;21.65;14.70;;;17.00;99.90;;;;;;5035735;28;20032;-90
2023/09/29 03:21:30;;;;;;;24.25;14.25;;;17.00;99.90;;;;;;5035652;28;20538;-89
2023/09/29 03:23:56;;;;;;;20.48;13.63;;;17.10;99.90;;;;;;5036275;28;20068;-88
2023/09/29 03:26:22;;;;;;;21.98;14.57;;;17.10;99.90;;;;;;5035934;28;20041;-90
2023/09/29 03:28:49;;;;;;;22.10;14.48;;;17.10;99.90;;;;;;5019253;28;20033;-89
2023/09/29 03:31:15;;;;;;;20.63;15.15;;;17.10;99.90;;;;;;5020421;28;20400;-90
2023/09/29 03:33:42;;;;;;;22.33;14.55;;;17.10;99.90;;;;;;5037346;28;20562;-89
2023/09/29 03:36:08;;;;;;;16.83;8.05;;;17.20;99.90;;;;;;5045218;28;20041;-90
2023/09/29 03:38:33;;;;;;;20.58;14.77;;;17.10;99.90;;;;;;5048734;28;20120;-89
2023/09/29 03:40:59;;;;;;;22.33;13.88;;;17.10;99.90;;;;;;5019064;28;20102;-90
2023/09/29 03:43:25;;;;;;;18.85;13.57;;;17.10;99.90;;;;;;5019686;28;20496;-90
2023/09/29 03:45:52;;;;;;;19.25;8.45;;;17.10;99.90;;;;;;5035807;28;20087;-90
2023/09/29 03:48:17;;;;;;;14.48;9.60;;;17.10;99.90;;;;;;5018237;28;20048;-90
2023/09/29 03:50:43;;;;;;;20.42;13.93;;;17.10;99.90;;;;;;5019165;28;20041;-90
2023/09/29 03:53:09;;;;;;;22.05;14.32;;;17.10;99.90;;;;;;5035640;28;20041;-90
2023/09/29 03:55:35;;;;;;;19.20;12.90;;;17.10;99.90;;;;;;5018616;28;20040;-90
2023/09/29 03:58:01;;;;;;;19.20;8.90;;;17.20;99.90;;;;;;5019058;28;20415;-90
2023/09/29 04:00:26;;;;;;;22.20;14.35;;;17.10;99.90;;;;;;5018375;28;20051;-90
2023/09/29 04:02:52;;;;;;;21.25;13.73;;;17.10;99.90;;;;;;5019276;28;20124;-88
2023/09/29 04:05:19;;;;;;;21.25;13.68;;;17.20;99.90;;;;;;5018852;28;20040;-88
2023/09/29 04:07:45;;;;;;;21.73;13.73;;;17.20;99.90;;;;;;5018863;28;20055;-88
2023/09/29 04:10:12;;;;;;;21.85;14.57;;;17.20;99.90;;;;;;5018293;28;20045;-88
2023/09/29 04:12:40;;;;;;;21.38;13.45;;;17.20;99.90;;;;;;5035247;28;20041;-88
2023/09/29 04:15:07;;;;;;;15.95;8.32;;;17.20;99.90;;;;;;5035172;28;20043;-88
2023/09/29 04:17:34;;;;;;;17.17;7.47;;;17.20;99.90;;;;;;5034547;28;20547;-88
2023/09/29 04:20:01;;;;;;;22.20;13.20;;;17.10;99.90;;;;;;5052373;28;20393;-90
2023/09/29 04:22:27;;;;;;;22.10;13.80;;;17.20;99.90;;;;;;5017981;28;20040;-89
2023/09/29 04:24:53;;;;;;;18.23;12.95;;;17.20;99.90;;;;;;5035013;28;20051;-90
2023/09/29 04:27:18;;;;;;;17.98;12.55;;;17.30;99.90;;;;;;5019062;28;20404;-89
2023/09/29 04:29:44;;;;;;;19.20;12.95;;;17.30;99.90;;;;;;5018086;28;20079;-89
2023/09/29 04:32:10;;;;;;;15.25;8.38;;;17.30;99.90;;;;;;5018861;28;20519;-89
2023/09/29 04:34:36;;;;;;;19.45;11.98;;;17.30;99.90;;;;;;5018437;28;20553;-90
2023/09/29 04:37:01;;;;;;;16.33;7.38;;;17.30;99.90;;;;;;5017794;28;20037;-89
2023/09/29 04:39:27;;;;;;;20.45;12.02;;;17.30;99.90;;;;;;5051821;28;20053;-89
2023/09/29 04:41:52;;;;;;;17.35;11.02;;;17.30;99.90;;;;;;5051620;28;20500;-89
2023/09/29 04:44:18;;;;;;;17.08;10.80;;;17.30;99.90;;;;;;5017987;28;20041;-89
2023/09/29 04:46:44;;;;;;;17.85;11.15;;;17.40;99.90;;;;;;5033945;28;20415;-90
2023/09/29 04:49:10;;;;;;;17.23;6.90;;;17.40;99.90;;;;;;5017414;28;20411;-89
2023/09/29 04:51:39;;;;;;;17.08;10.60;;;17.40;99.90;;;;;;5017408;28;20504;-89
2023/09/29 04:54:04;;;;;;;18.90;10.27;;;17.40;99.90;;;;;;5017032;28;20041;-89
2023/09/29 04:56:31;;;;;;;12.50;6.22;;;17.40;99.90;;;;;;5018052;28;20090;-89
2023/09/29 04:58:57;;;;;;;18.70;10.10;;;17.40;99.90;;;;;;5033195;28;20045;-90
2023/09/29 05:01:24;;;;;;;12.80;6.85;;;17.40;99.90;;;;;;5017518;28;20395;-89
2023/09/29 05:03:53;;;;;;;15.52;9.32;;;17.40;99.90;;;;;;5017487;28;20048;-90
2023/09/29 05:06:19;;;;;;;17.35;6.68;;;17.40;99.90;;;;;;5017410;28;20033;-89
2023/09/29 05:08:45;;;;;;;17.55;9.85;;;17.50;99.90;;;;;;5033875;28;20492;-90
2023/09/29 05:11:27;;;;;;;18.75;9.23;;;17.50;99.90;;;;;;5017026;28;20052;-89
2023/09/29 05:13:54;;;;;;;15.85;9.77;;;17.50;99.90;;;;;;5050830;28;20037;-89
2023/09/29 05:16:20;;;;;;;16.73;9.20;;;17.60;99.90;;;;;;5034009;28;20041;-90
2023/09/29 05:18:46;;;;;;;16.30;9.10;;;17.60;99.90;;;;;;5016799;28;20087;-89
2023/09/29 05:21:12;;;;;;;10.98;5.13;;;17.60;99.90;;;;;;5017374;28;20080;-89
2023/09/29 05:23:38;;;;;;;14.02;8.85;;;17.60;99.90;;;;;;5017440;28;20094;-89
2023/09/29 05:26:07;;;;;;;14.18;9.07;;;17.50;99.90;;;;;;5033459;28;20581;-90
2023/09/29 05:28:39;;;;;;;11.10;6.03;;;17.60;99.90;;;;;;5016710;28;20045;-89
2023/09/29 05:31:05;;;;;;;15.73;9.25;;;17.60;99.90;;;;;;5016895;28;20041;-90
2023/09/29 05:33:31;;;;;;;18.20;6.50;;;17.60;99.90;;;;;;5033740;28;20048;-89
2023/09/29 05:35:58;;;;;;;14.25;8.35;;;17.60;99.90;;;;;;5033734;28;20037;-90
2023/09/29 05:38:24;;;;;;;13.68;5.85;;;17.60;99.90;;;;;;5050004;28;20090;-90
2023/09/29 05:40:51;;;;;;;13.80;8.25;;;17.60;99.90;;;;;;5033455;28;20055;-89
2023/09/29 05:43:17;;;;;;;13.18;8.35;;;17.60;99.90;;;;;;5017102;28;20438;-89
2023/09/29 05:45:47;;;;;;;15.82;8.55;;;17.60;99.90;;;;;;5016731;28;20047;-89
2023/09/29 05:48:12;;;;;;;15.77;8.68;;;17.60;99.90;;;;;;5033515;28;20044;-91
2023/09/29 05:50:38;;;;;;;14.02;8.30;;;17.70;99.90;;;;;;5016840;28;20405;-89
2023/09/29 05:53:05;;;;;;;13.00;7.57;;;17.70;99.90;;;;;;5033642;28;20098;-90
2023/09/29 05:55:31;;;;;;;13.57;7.82;;;17.70;99.90;;;;;;5017211;28;20037;-90
2023/09/29 05:57:57;;;;;;;14.27;8.07;;;17.70;99.90;;;;;;5033580;28;20040;-90
2023/09/29 06:00:24;;;;;;;15.13;7.57;;;17.70;99.90;;;;;;5033633;28;20512;-90
2023/09/29 06:02:50;;;;;;;11.18;5.45;;;17.70;99.90;;;;;;5017113;28;20496;-90
2023/09/29 06:05:16;;;;;;;12.43;5.60;;;17.70;99.90;;;;;;5017212;28;20033;-89
2023/09/29 06:07:42;;;;;;;15.52;7.38;;;17.60;99.90;;;;;;5017027;28;20052;-89
2023/09/29 06:10:08;;;;;;;8.30;4.95;;;17.70;99.90;;;;;;5017575;28;20468;-89
2023/09/29 06:12:34;;;;;;;12.80;7.10;;;17.70;99.90;;;;;;5017785;28;20072;-90
2023/09/29 06:15:00;;;;;;;11.23;4.70;;;17.70;99.90;;;;;;5039812;28;20123;-89
2023/09/29 06:17:25;;;;;;;14.32;7.00;;;17.70;99.90;;;;;;5036796;28;20041;-88
2023/09/29 06:19:51;;;;;;;13.77;6.72;;;17.70;99.90;;;;;;5033072;28;20044;-90
2023/09/29 06:22:17;;;;;;;12.38;6.00;;;17.80;99.90;;;;;;5015986;28;20503;-89
2023/09/29 06:24:44;;;;;;;15.45;7.05;;;17.80;99.90;;;;;;5016645;28;20041;-89
2023/09/29 06:27:10;;;;;;;16.00;7.13;;;17.80;99.90;;;;;;5017437;28;20404;-89
2023/09/29 06:29:36;;;;;;;12.00;6.10;;;17.80;99.90;;;;;;5032902;28;20511;-90
2023/09/29 06:32:02;;;;;;;12.30;5.35;;;17.80;99.90;;;;;;5033344;28;20041;-90
2023/09/29 06:34:27;;;;;;;10.65;5.63;;;17.80;99.90;;;;;;5032990;28;20053;-90
2023/09/29 06:36:53;;;;;;;8.85;3.67;;;17.90;99.90;;;;;;5025557;28;20049;-90
2023/09/29 06:39:19;;;;;;;11.65;5.60;;;17.90;99.90;;;;;;5051991;28;20029;-90
2023/09/29 06:41:44;;;;;;;11.27;4.97;;;17.80;99.90;;;;;;5019024;28;20033;-90
2023/09/29 06:44:10;;;;;;;8.23;3.30;;;17.90;99.90;;;;;;5034247;28;20412;-90
2023/09/29 06:46:35;;;;;;;8.98;3.88;;;17.90;99.90;;;;;;5031487;28;20034;-90
2023/09/29 06:49:04;;;;;;;11.30;4.80;;;17.80;99.90;;;;;;5033274;28;20035;-90
2023/09/29 06:51:29;;;;;;;13.73;5.70;;;17.90;99.90;;;;;;5023415;28;20099;-90
2023/09/29 06:53:55;;;;;;;10.20;4.68;;;18.00;99.90;;;;;;5039195;28;20531;-90
2023/09/29 06:56:21;;;;;;;9.63;3.45;;;18.00;99.90;;;;;;5032954;28;20053;-90
2023/09/29 06:58:47;;;;;;;10.18;4.78;;;17.90;99.90;;;;;;5015613;28;20051;-90
2023/09/29 07:01:13;;;;;;;10.98;3.85;;;18.00;99.90;;;;;;5032571;28;20107;-90
2023/09/29 07:03:39;;;;;;;10.07;4.70;;;18.00;99.90;;;;;;5016226;28;20083;-91
2023/09/29 07:06:05;;;;;;;11.50;5.35;;;18.00;99.90;;;;;;5017509;28;20047;-90
2023/09/29 07:08:31;;;;;;;12.27;3.72;;;18.00;99.90;;;;;;5019721;28;20037;-91
2023/09/29 07:10:57;;;;;;;11.57;4.00;;;18.00;99.90;;;;;;5038558;28;20136;-90
2023/09/29 07:13:23;;;;;;;10.52;4.47;;;18.00;99.90;;;;;;5045711;28;20037;-89
2023/09/29 07:15:48;;;;;;;11.80;4.53;;;18.10;99.90;;;;;;5029506;28;20075;-90
2023/09/29 07:18:16;;;;;;;10.10;4.40;;;18.10;99.90;;;;;;5028766;28;20492;-90
2023/09/29 07:20:43;;;;;;;10.20;3.97;;;18.10;99.90;;;;;;5045547;28;20051;-89
2023/09/29 07:23:08;;;;;;;8.48;4.05;;;18.10;99.90;;;;;;5045638;28;20563;-89
2023/09/29 07:25:38;;;;;;;8.13;3.17;;;18.10;99.90;;;;;;5045007;28;20075;-90
2023/09/29 07:28:14;;;;;;;9.70;4.32;;;18.20;99.90;;;;;;5028689;28;20144;-90
2023/09/29 07:30:44;;;;;;;9.43;4.32;;;18.20;99.90;;;;;;5025549;28;20033;-90
2023/09/29 07:33:10;;;;;;;10.43;3.17;;;18.30;99.90;;;;;;5045135;28;20515;-90
2023/09/29 07:35:36;;;;;;;8.98;3.58;;;18.30;99.90;;;;;;5026674;28;20033;-89
2023/09/29 07:38:03;;;;;;;8.63;4.30;;;18.30;99.90;;;;;;5045058;28;20037;-90
2023/09/29 07:40:29;;;;;;;9.82;4.00;;;18.30;99.90;;;;;;5027785;28;20052;-89
2023/09/29 07:42:54;;;;;;;9.55;4.60;;;18.50;99.90;;;;;;5038581;28;20045;-90
2023/09/29 07:45:20;;;;;;;10.23;4.28;;;18.50;99.90;;;;;;5019338;28;20041;-90
2023/09/29 07:47:46;;;;;;;9.75;4.22;;;18.50;99.90;;;;;;5019399;28;20048;-90
2023/09/29 07:50:12;;;;;;;11.68;3.85;;;18.60;99.90;;;;;;5035415;28;20041;-90
2023/09/29 07:52:39;;;;;;;11.48;4.82;;;18.60;99.90;;;;;;5035189;28;20041;-90
2023/09/29 07:55:06;;;;;;;11.05;3.50;;;18.60;99.90;;;;;;5018689;28;20033;-90
2023/09/29 07:57:31;;;;;;;11.57;4.05;;;18.60;99.90;;;;;;5019212;28;20036;-90
2023/09/29 07:59:57;;;;;;;9.98;4.03;;;18.60;99.90;;;;;;5020864;28;20049;-90
2023/09/29 08:02:24;;;;;;;9.40;4.60;;;18.70;99.90;;;;;;5017392;28;20040;-90
2023/09/29 08:04:50;;;;;;;11.07;4.88;;;18.80;99.90;;;;;;5037602;28;20120;-90
2023/09/29 08:07:15;;;;;;;10.95;4.32;;;18.80;99.90;;;;;;5034427;28;20140;-90
2023/09/29 08:09:41;;;;;;;8.85;4.30;;;18.90;99.90;;;;;;5041260;28;20061;-90
2023/09/29 08:12:07;;;;;;;9.43;4.40;;;19.00;99.90;;;;;;5025356;28;20068;-90
2023/09/29 08:14:32;;;;;;;8.40;4.28;;;19.00;99.90;;;;;;5023070;28;20033;-91
2023/09/29 08:16:58;;;;;;;11.32;4.50;;;19.10;99.90;;;;;;5040483;28;20412;-90
2023/09/29 08:19:24;;;;;;;10.98;4.55;;;19.10;99.90;;;;;;5024327;28;20052;-90
2023/09/29 08:21:49;;;;;;;9.75;4.38;;;19.20;99.90;;;;;;5024865;28;20048;-90
2023/09/29 08:24:15;;;;;;;7.97;3.45;;;19.30;99.90;;;;;;5041192;28;20116;-90
2023/09/29 08:26:41;;;;;;;9.98;3.97;;;19.30;99.90;;;;;;5041294;28;20041;-91
2023/09/29 08:29:10;;;;;;;9.65;4.30;;;19.40;99.90;;;;;;5024272;28;20333;-90
2023/09/29 08:31:35;;;;;;;8.88;3.90;;;19.40;99.90;;;;;;5025559;28;20392;-90
2023/09/29 08:34:02;;;;;;;9.30;4.00;;;19.50;99.90;;;;;;5040734;28;20496;-90
2023/09/29 08:36:27;;;;;;;8.20;3.97;;;19.60;99.90;;;;;;5024103;28;20045;-91
2023/09/29 08:38:53;;;;;;;14.32;4.35;;;19.60;99.90;;;;;;5034904;28;20107;-91
2023/09/29 08:41:28;;;;;;;8.65;3.90;;;19.70;99.90;;;;;;5041274;28;20033;-91
2023/09/29 08:43:54;;;;;;;9.63;4.00;;;19.80;99.90;;;;;;5041292;28;20551;-90
2023/09/29 08:46:21;;;;;;;14.57;4.20;;;19.90;99.90;;;;;;5023619;28;20040;-91
2023/09/29 08:48:47;;;;;;;10.30;3.85;;;20.00;99.90;;;;;;5038191;28;20033;-91
2023/09/29 08:51:15;;;;;;;10.20;4.10;;;20.10;99.90;;;;;;5019847;28;20044;-90
2023/09/29 08:53:44;;;;;;;9.40;3.63;;;20.10;99.90;;;;;;5035985;28;20041;-91
2023/09/29 08:56:16;;;;;;;9.07;3.92;;;20.20;99.90;;;;;;5034885;28;20083;-91
2023/09/29 08:58:42;;;;;;;8.80;3.97;;;20.20;99.90;;;;;;5034047;28;20033;-91
2023/09/29 09:01:09;;;;;;;10.43;3.83;;;20.30;99.90;;;;;;5033831;28;20401;-91
2023/09/29 09:03:35;;;;;;;7.80;3.60;;;20.30;99.90;;;;;;5033917;28;20504;-91
2023/09/29 09:06:01;;;;;;;8.48;3.70;;;20.40;99.90;;;;;;5020180;28;20044;-91
2023/09/29 09:08:27;;;;;;;9.82;3.90;;;20.40;99.90;;;;;;5018280;28;20037;-91
2023/09/29 09:11:00;;;;;;;10.38;3.90;;;20.40;99.90;;;;;;5017827;28;20087;-91
2023/09/29 09:13:26;;;;;;;7.50;3.35;;;20.40;99.90;;;;;;5034333;28;20037;-91
2023/09/29 09:15:59;;;;;;;7.82;3.53;;;20.50;99.90;;;;;;5018332;28;20040;-91
2023/09/29 09:18:28;;;;;;;9.68;4.03;;;20.50;99.90;;;;;;5016990;28;20051;-91
2023/09/29 09:20:54;;;;;;;9.98;3.60;;;20.50;99.90;;;;;;5025598;28;20117;-91
2023/09/29 09:23:21;;;;;;;9.88;3.88;;;20.60;99.90;;;;;;5025233;28;20115;-91
2023/09/29 09:25:47;;;;;;;9.05;3.60;;;20.60;99.90;;;;;;5045554;28;20033;-91
2023/09/29 09:28:18;;;;;;;9.60;3.80;;;20.70;99.90;;;;;;5043147;28;20047;-92
2023/09/29 09:30:46;;;;;;;8.98;3.53;;;20.70;99.90;;;;;;5024595;28;20040;-91
2023/09/29 09:33:21;;;;;;;7.95;3.30;;;20.80;99.90;;;;;;5044283;28;20065;-91
2023/09/29 09:35:50;;;;;;;8.38;3.53;;;20.80;99.90;;;;;;5051479;28;20029;-90
2023/09/29 09:38:17;;;;;;;10.18;3.53;;;20.90;99.90;;;;;;5040768;28;20082;-90
2023/09/29 09:40:47;;;;;;;9.55;3.70;;;21.00;99.90;;;;;;5027039;28;20514;-91
2023/09/29 09:43:13;;;;;;;8.45;3.60;;;21.10;99.90;;;;;;5043242;28;20040;-90
2023/09/29 09:45:40;;;;;;;9.38;3.70;;;21.20;99.90;;;;;;5043112;28;20048;-90
2023/09/29 09:48:10;;;;;;;8.00;3.33;;;21.20;99.90;;;;;;5022084;28;20040;-91
2023/09/29 09:50:36;;;;;;;8.68;3.60;;;21.20;99.90;;;;;;5032591;28;20041;-90
2023/09/29 09:53:04;;;;;;;8.40;3.53;;;21.30;99.90;;;;;;5014517;28;20095;-90
2023/09/29 09:55:36;;;;;;;9.93;3.42;;;21.20;99.90;;;;;;5033624;28;20083;-90
2023/09/29 09:58:09;;;;;;;8.10;3.47;;;21.20;99.90;;;;;;5013733;28;20037;-90
2023/09/29 10:00:36;;;;;;;9.52;3.60;;;21.30;99.90;;;;;;5016479;28;20124;-90
2023/09/29 10:03:04;;;;;;;7.35;3.42;;;21.20;99.90;;;;;;5032844;28;20048;-90
2023/09/29 10:05:31;;;;;;;8.25;3.75;;;21.20;99.90;;;;;;5032738;28;20052;-90
2023/09/29 10:08:05;;;;;;;9.95;3.75;;;21.20;99.90;;;;;;5017055;28;20068;-91
2023/09/29 10:10:41;;;;;;;8.95;3.50;;;21.20;99.90;;;;;;5016527;28;20059;-90
2023/09/29 10:13:11;;;;;;;9.23;3.90;;;21.30;99.90;;;;;;5033959;28;20083;-90
2023/09/29 10:15:41;;;;;;;8.07;3.30;;;21.20;99.90;;;;;;5017052;28;20068;-91
2023/09/29 10:18:16;;;;;;;8.80;3.35;;;21.30;99.90;;;;;;5032746;28;20040;-90
2023/09/29 10:20:43;;;;;;;9.35;3.53;;;21.30;99.90;;;;;;5016147;28;20098;-90
2023/09/29 10:23:15;;;;;;;8.23;3.42;;;21.30;99.90;;;;;;5021628;28;20056;-91
2023/09/29 10:25:44;;;;;;;9.70;3.47;;;21.30;99.90;;;;;;5020229;28;20519;-90
2023/09/29 10:28:12;;;;;;;10.27;3.65;;;21.30;99.90;;;;;;5020869;28;20041;-90
2023/09/29 10:30:39;;;;;;;9.73;3.55;;;21.40;99.90;;;;;;5023582;28;20044;-90
2023/09/29 10:33:11;;;;;;;11.73;3.58;;;21.40;99.90;;;;;;5025789;28;20319;-91
2023/09/29 10:35:46;;;;;;;8.82;3.70;;;21.40;99.90;;;;;;5038720;28;20045;-90
2023/09/29 10:38:32;;;;;;;10.50;3.92;;;21.30;99.90;;;;;;5028237;28;20033;-90
2023/09/29 10:40:59;;;;;;;8.35;3.33;;;21.30;99.90;;;;;;5040922;28;20041;-90
2023/09/29 10:43:24;;;;;;;10.55;3.95;;;21.20;99.90;;;;;;5020784;28;20381;-90
2023/09/29 10:45:54;;;;;;;8.38;3.70;;;21.10;99.90;;;;;;5019986;28;20518;-90
2023/09/29 10:48:23;;;;;;;8.70;4.00;;;21.10;99.90;;;;;;5019823;28;20040;-91
2023/09/29 10:50:49;;;;;;;8.10;3.75;;;21.10;99.90;;;;;;5020273;28;20041;-91
2023/09/29 10:53:17;;;;;;;9.88;4.35;;;21.10;99.90;;;;;;5020442;28;20033;-90
2023/09/29 10:55:44;;;;;;;8.35;3.35;;;21.00;99.90;;;;;;5036579;28;20098;-91
2023/09/29 10:58:11;;;;;;;9.85;3.78;;;21.00;99.90;;;;;;5036216;28;20416;-90
2023/09/29 11:01:04;;;;;;;10.00;4.45;;;21.00;99.90;;;;;;5043376;28;20497;-90
2023/09/29 11:03:30;;;;;;;9.90;4.25;;;21.00;99.90;;;;;;5032559;28;20080;-90
2023/09/29 11:06:08;;;;;;;9.63;3.85;;;21.10;99.90;;;;;;5036519;28;20532;-91
2023/09/29 11:08:38;;;;;;;9.45;4.45;;;21.10;99.90;;;;;;5019894;28;20044;-90
2023/09/29 11:11:06;;;;;;;7.13;3.90;;;21.10;99.90;;;;;;5019947;28;20043;-90
2023/09/29 11:13:32;;;;;;;8.85;4.10;;;21.20;99.90;;;;;;5036674;28;20037;-90
2023/09/29 11:15:59;;;;;;;11.18;4.28;;;21.30;99.90;;;;;;5021105;28;20036;-90
2023/09/29 11:18:36;;;;;;;11.73;4.38;;;21.40;99.90;;;;;;5025816;28;20071;-90
2023/09/29 11:21:09;;;;;;;7.90;4.30;;;21.40;99.90;;;;;;5051338;28;20036;-89
2023/09/29 11:23:44;;;;;;;11.63;4.88;;;21.40;99.90;;;;;;5049525;28;20052;-90
2023/09/29 11:26:10;;;;;;;9.35;3.95;;;21.40;99.90;;;;;;5023053;28;20036;-90
2023/09/29 11:28:43;;;;;;;11.60;4.53;;;21.40;99.90;;;;;;5025587;28;20041;-90
2023/09/29 11:31:11;;;;;;;9.43;4.07;;;21.50;99.90;;;;;;5061766;28;20033;-90
2023/09/29 11:33:39;;;;;;;10.55;4.10;;;21.40;99.90;;;;;;5034586;28;20037;-90
2023/09/29 11:36:27;;;;;;;9.55;4.38;;;21.40;99.90;;;;;;5036470;28;20033;-90
2023/09/29 11:38:52;;;;;;;10.70;4.15;;;21.40;99.90;;;;;;5053543;28;20527;-90
2023/09/29 11:41:18;;;;;;;9.75;4.50;;;21.40;99.90;;;;;;5019340;28;20045;-90
2023/09/29 11:43:45;;;;;;;10.73;4.43;;;21.50;99.90;;;;;;5035288;28;20086;-89
2023/09/29 11:46:14;;;;;;;8.63;3.90;;;21.60;99.90;;;;;;5035435;28;20507;-89
2023/09/29 11:48:40;;;;;;;9.18;4.18;;;21.70;99.90;;;;;;5018567;28;20527;-89
2023/09/29 11:51:08;;;;;;;10.65;4.53;;;21.80;99.90;;;;;;5018925;28;20044;-89
2023/09/29 11:53:34;;;;;;;10.45;4.85;;;21.90;99.90;;;;;;5035695;28;20044;-89
2023/09/29 11:56:00;;;;;;;9.38;4.20;;;21.90;99.90;;;;;;5019043;28;20036;-89
2023/09/29 11:58:26;;;;;;;9.70;4.65;;;21.90;99.90;;;;;;5034774;28;20040;-89
2023/09/29 12:00:52;;;;;;;9.27;4.30;;;21.90;99.90;;;;;;5014739;28;20040;-90
2023/09/29 12:03:21;;;;;;;11.50;4.45;;;21.90;99.90;;;;;;5014543;28;20047;-90
2023/09/29 12:05:49;;;;;;;9.07;4.20;;;21.80;99.90;;;;;;5018448;28;20044;-89
2023/09/29 12:08:16;;;;;;;11.48;4.88;;;21.80;99.90;;;;;;5036880;28;20025;-94
2023/09/29 12:10:42;;;;;;;9.35;4.10;;;21.80;99.90;;;;;;5018616;28;20044;-89
2023/09/29 12:13:10;;;;;;;8.38;3.97;;;21.70;99.90;;;;;;5035059;28;20044;-89
2023/09/29 12:15:36;;;;;;;8.50;4.45;;;21.70;99.90;;;;;;5036266;28;20114;-89
2023/09/29 12:18:02;;;;;;;10.23;4.35;;;21.70;99.90;;;;;;5035316;28;20040;-89
2023/09/29 12:20:28;;;;;;;10.50;4.10;;;21.60;99.90;;;;;;5017725;28;20041;-89
2023/09/29 12:22:55;;;;;;;8.60;4.03;;;21.60;99.90;;;;;;5018021;28;20178;-90
2023/09/29 12:25:21;;;;;;;8.90;4.47;;;21.60;99.90;;;;;;5018097;28;20045;-90
2023/09/29 12:27:50;;;;;;;9.80;4.50;;;21.50;99.90;;;;;;5018162;28;20514;-90
2023/09/29 12:30:17;;;;;;;11.20;4.95;;;21.40;99.90;;;;;;5018091;28;20104;-90
2023/09/29 12:32:44;;;;;;;12.93;5.13;;;21.40;99.90;;;;;;5018100;28;20040;-90
2023/09/29 12:35:12;;;;;;;12.68;5.50;;;21.30;99.90;;;;;;5035383;28;20489;-90
2023/09/29 12:37:42;;;;;;;12.95;5.60;;;21.20;99.90;;;;;;5018328;28;20089;-89